createdAt,value
2019-03-09T00:00:55.666Z,4.57
2019-03-09T00:03:25.339Z,4.13
2019-03-09T00:05:57.569Z,4.90
2019-03-09T00:08:27.741Z,4.57
2019-03-09T00:11:02.392Z,4.40
2019-03-09T00:13:37.716Z,4.57
2019-03-09T00:16:10.158Z,5.00
2019-03-09T00:18:39.164Z,4.20
2019-03-09T00:21:12.895Z,4.67
2019-03-09T00:23:49.846Z,4.43
2019-03-09T00:26:24.969Z,6.00
2019-03-09T00:29:02.491Z,5.17
2019-03-09T00:31:41.542Z,4.87
2019-03-09T00:34:10.471Z,4.90
2019-03-09T00:36:44.134Z,4.70
2019-03-09T00:39:17.502Z,4.30
2019-03-09T00:41:47.776Z,4.30
2019-03-09T00:44:17.478Z,4.63
2019-03-09T00:46:46.543Z,5.00
2019-03-09T00:49:21.616Z,4.67
2019-03-09T00:51:51.074Z,4.87
2019-03-09T00:54:21.135Z,4.90
2019-03-09T00:56:50.074Z,4.87
2019-03-09T00:59:21.109Z,4.70
2019-03-09T01:01:52.575Z,5.10
2019-03-09T01:04:25.190Z,5.03
2019-03-09T01:06:54.114Z,6.07
2019-03-09T01:09:24.202Z,5.70
2019-03-09T01:11:56.176Z,5.40
2019-03-09T01:14:28.179Z,5.37
2019-03-09T01:16:57.183Z,5.13
2019-03-09T01:19:28.738Z,5.17
2019-03-09T01:22:01.378Z,5.53
2019-03-09T01:24:32.278Z,5.47
2019-03-09T01:27:06.425Z,5.53
2019-03-09T01:29:35.353Z,6.00
2019-03-09T01:32:04.285Z,6.40
2019-03-09T01:34:37.713Z,5.30
2019-03-09T01:37:10.369Z,5.57
2019-03-09T01:39:39.370Z,5.80
2019-03-09T01:42:12.597Z,6.37
2019-03-09T01:44:46.950Z,5.43
2019-03-09T01:47:18.490Z,6.60
2019-03-09T01:49:49.372Z,6.20
2019-03-09T01:52:23.174Z,6.60
2019-03-09T01:54:54.934Z,5.97
2019-03-09T01:57:27.653Z,6.77
2019-03-09T01:59:59.774Z,6.87
2019-03-09T02:02:34.470Z,6.60
2019-03-09T02:05:06.524Z,6.90
2019-03-09T02:07:37.868Z,7.20
2019-03-09T02:10:10.762Z,6.50
2019-03-09T02:12:44.615Z,6.73
2019-03-09T02:15:13.595Z,7.20
2019-03-09T02:17:45.999Z,6.80
2019-03-09T02:20:15.032Z,6.43
2019-03-09T02:22:44.324Z,6.43
2019-03-09T02:25:14.821Z,7.30
2019-03-09T02:27:48.295Z,7.80
2019-03-09T02:30:17.266Z,6.20
2019-03-09T02:32:50.548Z,7.50
2019-03-09T02:35:19.501Z,7.53
2019-03-09T02:37:48.449Z,7.43
2019-03-09T02:40:23.481Z,6.80
2019-03-09T02:42:53.771Z,6.70
2019-03-09T02:45:23.353Z,7.03
2019-03-09T02:47:54.539Z,7.00
2019-03-09T02:50:24.006Z,7.03
2019-03-09T02:52:53.477Z,6.90
2019-03-09T02:55:22.480Z,7.30
2019-03-09T02:57:53.904Z,6.50
2019-03-09T03:00:22.955Z,6.57
2019-03-09T03:02:59.715Z,7.23
2019-03-09T03:05:34.740Z,7.37
2019-03-09T03:08:10.529Z,6.73
2019-03-09T03:10:46.138Z,6.27
2019-03-09T03:13:22.390Z,6.37
2019-03-09T03:15:53.364Z,7.13
2019-03-09T03:18:25.132Z,7.07
2019-03-09T03:20:56.124Z,6.57
2019-03-09T03:23:25.050Z,6.80
2019-03-09T03:26:06.763Z,6.70
2019-03-09T03:28:37.829Z,6.10
2019-03-09T03:31:11.042Z,7.23
2019-03-09T03:33:39.974Z,6.80
2019-03-09T03:36:08.876Z,6.83
2019-03-09T03:38:39.529Z,6.73
2019-03-09T03:41:13.413Z,6.43
2019-03-09T03:43:43.922Z,6.87
2019-03-09T03:46:12.868Z,6.93
2019-03-09T03:48:46.174Z,6.00
2019-03-09T03:51:18.116Z,6.07
2019-03-09T03:53:50.083Z,6.50
2019-03-09T03:56:20.353Z,6.50
2019-03-09T03:58:52.913Z,6.53
2019-03-09T04:01:21.941Z,5.90
2019-03-09T04:03:59.187Z,6.33
2019-03-09T04:06:34.399Z,7.03
2019-03-09T04:09:06.185Z,6.23
2019-03-09T04:11:36.554Z,6.43
2019-03-09T04:14:07.328Z,6.27
2019-03-09T04:16:38.944Z,5.87
2019-03-09T04:19:07.906Z,5.80
2019-03-09T04:21:41.905Z,6.43
2019-03-09T04:24:11.829Z,6.20
2019-03-09T04:26:40.811Z,5.77
2019-03-09T04:29:10.333Z,6.03
2019-03-09T04:31:39.243Z,5.60
2019-03-09T04:34:10.442Z,6.30
2019-03-09T04:36:41.338Z,5.63
2019-03-09T04:39:10.256Z,6.33
2019-03-09T04:41:41.263Z,5.90
2019-03-09T04:44:10.223Z,6.40
2019-03-09T04:46:42.775Z,6.13
2019-03-09T04:49:11.683Z,5.97
2019-03-09T04:51:52.971Z,6.10
2019-03-09T04:54:26.357Z,5.70
2019-03-09T04:56:55.605Z,5.80
2019-03-09T04:59:26.281Z,5.90
2019-03-09T05:01:58.233Z,6.30
2019-03-09T05:04:44.212Z,5.53
2019-03-09T05:07:17.842Z,6.33
2019-03-09T05:09:59.885Z,6.37
2019-03-09T05:12:28.783Z,7.27
2019-03-09T05:14:57.729Z,6.47
2019-03-09T05:17:27.559Z,6.10
2019-03-09T05:19:57.150Z,5.70
2019-03-09T05:22:27.987Z,6.50
2019-03-09T05:24:58.015Z,6.47
2019-03-09T05:27:29.343Z,6.13
2019-03-09T05:30:11.013Z,6.00
2019-03-09T05:32:43.989Z,5.73
2019-03-09T05:35:15.917Z,6.50
2019-03-09T05:37:48.669Z,5.53
2019-03-09T05:40:17.780Z,6.70
2019-03-09T05:42:50.331Z,6.37
2019-03-09T05:45:19.239Z,5.87
2019-03-09T05:47:58.039Z,6.13
2019-03-09T05:50:31.450Z,6.20
2019-03-09T05:53:35.973Z,5.90
2019-03-09T05:56:07.925Z,6.03
2019-03-09T05:58:36.129Z,6.00
2019-03-09T06:01:07.338Z,6.70
2019-03-09T06:03:40.384Z,7.10
2019-03-09T06:06:19.257Z,6.83
2019-03-09T06:08:50.775Z,6.80
2019-03-09T06:11:24.591Z,6.87
2019-03-09T06:13:57.733Z,6.73
2019-03-09T06:16:26.806Z,7.13
2019-03-09T06:18:56.333Z,7.50
2019-03-09T06:21:28.553Z,6.40
2019-03-09T06:23:57.463Z,6.33
2019-03-09T06:26:26.514Z,7.13
2019-03-09T06:28:55.432Z,7.33
2019-03-09T06:31:29.050Z,6.80
2019-03-09T06:34:02.320Z,6.20
2019-03-09T06:36:43.079Z,6.83
2019-03-09T06:39:20.668Z,7.10
2019-03-09T06:41:59.554Z,8.13
2019-03-09T06:44:30.687Z,6.50
2019-03-09T06:47:02.911Z,6.80
2019-03-09T06:49:31.949Z,6.70
2019-03-09T06:52:07.232Z,6.07
2019-03-09T06:54:42.137Z,6.83
2019-03-09T06:57:16.511Z,7.30
2019-03-09T06:59:45.451Z,6.40
2019-03-09T07:02:20.678Z,6.80
2019-03-09T07:04:49.729Z,5.90
2019-03-09T07:07:21.030Z,6.77
2019-03-09T07:09:50.064Z,6.17
2019-03-09T07:12:24.781Z,6.23
2019-03-09T07:15:34.501Z,6.20
2019-03-09T07:18:08.763Z,5.73
2019-03-09T07:20:42.957Z,5.97
2019-03-09T07:23:15.385Z,5.70
2019-03-09T07:25:47.147Z,5.60
2019-03-09T07:28:16.439Z,6.20
2019-03-09T07:30:46.581Z,5.63
2019-03-09T07:33:23.573Z,6.00
2019-03-09T07:35:55.969Z,5.20
2019-03-09T07:38:24.917Z,5.97
2019-03-09T07:40:57.103Z,5.20
2019-03-09T07:43:26.073Z,5.07
2019-03-09T07:45:57.219Z,5.27
2019-03-09T07:48:32.407Z,4.80
2019-03-09T07:51:01.656Z,4.87
2019-03-09T07:53:30.616Z,5.07
2019-03-09T07:56:03.866Z,3.90
2019-03-09T07:58:32.871Z,3.80
2019-03-09T08:01:02.178Z,4.03
2019-03-09T08:03:31.097Z,4.10
2019-03-09T08:06:00.088Z,3.20
2019-03-09T08:08:29.696Z,3.57
2019-03-09T08:10:58.635Z,3.73
2019-03-09T08:13:28.745Z,3.17
2019-03-09T08:15:59.817Z,3.20
2019-03-09T08:18:33.082Z,3.03
2019-03-09T08:21:08.598Z,2.30
2019-03-09T08:23:37.726Z,2.63
2019-03-09T08:26:11.717Z,2.50
2019-03-09T08:28:40.648Z,2.27
2019-03-09T08:31:09.617Z,2.37
2019-03-09T08:33:41.640Z,2.20
2019-03-09T08:36:16.333Z,2.50
2019-03-09T08:38:53.027Z,2.53
2019-03-09T08:41:22.026Z,2.73
2019-03-09T08:43:52.549Z,2.77
2019-03-09T08:46:21.531Z,2.83
2019-03-09T08:48:50.544Z,2.50
2019-03-09T08:51:21.336Z,3.63
2019-03-09T08:53:52.766Z,3.10
2019-03-09T08:56:25.657Z,2.97
2019-03-09T08:58:56.450Z,2.63
2019-03-09T09:01:25.639Z,2.20
2019-03-09T09:03:59.241Z,2.10
2019-03-09T09:06:28.193Z,2.00
2019-03-09T09:08:59.834Z,1.83
2019-03-09T09:11:32.043Z,1.80
2019-03-09T09:14:01.952Z,1.67
2019-03-09T09:16:33.118Z,1.60
2019-03-09T09:19:04.069Z,1.77
2019-03-09T09:21:40.915Z,1.80
2019-03-09T09:24:12.277Z,1.33
2019-03-09T09:26:43.601Z,1.75
2019-03-09T09:29:14.621Z,1.60
2019-03-09T09:31:45.152Z,2.02
2019-03-09T09:34:20.147Z,2.17
2019-03-09T09:36:53.102Z,3.12
2019-03-09T09:39:24.475Z,1.70
2019-03-09T09:41:59.719Z,1.90
2019-03-09T09:44:35.028Z,1.97
2019-03-09T09:47:09.030Z,2.43
2019-03-09T09:49:38.074Z,2.43
2019-03-09T09:52:12.044Z,1.87
2019-03-09T09:54:41.135Z,1.57
2019-03-09T09:57:10.135Z,2.27
2019-03-09T09:59:39.159Z,1.75
2019-03-09T10:02:11.738Z,1.72
2019-03-09T10:04:43.379Z,1.70
2019-03-09T10:07:12.346Z,1.80
2019-03-09T10:09:45.630Z,2.17
2019-03-09T10:12:18.834Z,2.37
2019-03-09T10:14:54.046Z,2.20
2019-03-09T10:17:27.318Z,1.70
2019-03-09T10:20:01.496Z,1.60
2019-03-09T10:22:36.206Z,1.70
2019-03-09T10:25:06.527Z,1.70
2019-03-09T10:27:35.598Z,1.77
2019-03-09T10:30:10.830Z,1.90
2019-03-09T10:32:40.019Z,1.77
2019-03-09T10:35:09.049Z,1.70
2019-03-09T10:37:41.281Z,1.90
2019-03-09T10:40:11.273Z,1.90
2019-03-09T10:42:41.240Z,1.87
2019-03-09T10:45:10.628Z,1.87
2019-03-09T10:47:40.084Z,1.83
2019-03-09T10:50:13.580Z,2.20
2019-03-09T10:52:42.794Z,1.67
2019-03-09T10:55:14.456Z,2.50
2019-03-09T10:57:43.494Z,2.00
2019-03-09T11:00:23.661Z,1.83
2019-03-09T11:02:53.374Z,2.00
2019-03-09T11:05:22.602Z,1.83
2019-03-09T11:07:58.725Z,1.77
2019-03-09T11:10:27.694Z,1.87
2019-03-09T11:13:01.436Z,2.10
2019-03-09T11:15:30.434Z,1.80
2019-03-09T11:18:04.186Z,1.73
2019-03-09T11:20:33.184Z,1.97
2019-03-09T11:23:06.309Z,2.20
2019-03-09T11:25:35.251Z,2.10
2019-03-09T11:28:07.856Z,2.20
2019-03-09T11:30:37.074Z,2.13
2019-03-09T11:33:10.829Z,2.17
2019-03-09T11:35:39.909Z,2.23
2019-03-09T11:38:08.947Z,1.80
2019-03-09T11:40:41.190Z,1.93
2019-03-09T11:43:15.749Z,2.10
2019-03-09T11:45:44.918Z,2.10
2019-03-09T11:48:13.976Z,2.27
2019-03-09T11:50:42.920Z,2.20
2019-03-09T11:53:11.905Z,2.12
2019-03-09T11:55:40.894Z,2.07
2019-03-09T11:58:11.948Z,1.97
2019-03-09T12:00:41.264Z,1.90
2019-03-09T12:03:14.920Z,1.83
2019-03-09T12:05:43.895Z,2.00
2019-03-09T12:08:12.900Z,2.17
2019-03-09T12:10:47.692Z,2.13
2019-03-09T12:13:19.636Z,1.73
2019-03-09T12:15:48.610Z,2.10
2019-03-09T12:18:17.666Z,2.23
2019-03-09T12:20:54.569Z,2.55
2019-03-09T12:23:24.998Z,2.30
2019-03-09T12:25:54.007Z,2.67
2019-03-09T12:28:29.921Z,2.10
2019-03-09T12:30:58.888Z,2.03
2019-03-09T12:33:27.867Z,1.72
2019-03-09T12:35:56.892Z,2.37
2019-03-09T12:38:31.098Z,1.90
2019-03-09T12:41:01.602Z,2.00
2019-03-09T12:43:30.708Z,2.07
2019-03-09T12:46:01.038Z,2.03
2019-03-09T12:48:35.042Z,2.63
2019-03-09T12:51:07.720Z,2.10
2019-03-09T12:53:36.724Z,1.90
2019-03-09T12:56:06.676Z,1.97
2019-03-09T12:58:40.503Z,2.07
2019-03-09T13:01:09.474Z,2.30
2019-03-09T13:03:38.484Z,2.83
2019-03-09T13:06:07.576Z,2.30
2019-03-09T13:08:36.734Z,2.13
2019-03-09T13:11:09.569Z,2.23
2019-03-09T13:13:38.680Z,2.27
2019-03-09T13:16:07.692Z,2.20
2019-03-09T13:18:43.954Z,2.90
2019-03-09T13:21:16.645Z,2.50
2019-03-09T13:23:45.766Z,2.13
2019-03-09T13:26:16.128Z,2.50
2019-03-09T13:28:45.184Z,2.70
2019-03-09T13:31:14.099Z,2.10
2019-03-09T13:33:43.261Z,2.63
2019-03-09T13:36:12.278Z,2.80
2019-03-09T13:38:46.788Z,3.00
2019-03-09T13:41:21.744Z,2.77
2019-03-09T13:43:50.730Z,2.90
2019-03-09T13:46:24.226Z,2.77
2019-03-09T13:48:53.206Z,2.60
2019-03-09T13:51:22.630Z,2.77
2019-03-09T13:53:51.662Z,2.80
2019-03-09T13:56:24.054Z,4.27
2019-03-09T13:58:53.048Z,3.10
2019-03-09T14:01:22.067Z,3.10
2019-03-09T14:03:54.086Z,2.60
2019-03-09T14:06:24.640Z,3.03
2019-03-09T14:08:53.684Z,2.63
2019-03-09T14:11:22.790Z,3.10
2019-03-09T14:14:00.470Z,3.43
2019-03-09T14:16:29.528Z,3.30
2019-03-09T14:18:59.074Z,3.20
2019-03-09T14:21:32.286Z,3.77
2019-03-09T14:24:01.392Z,3.63
2019-03-09T14:26:30.524Z,3.57
2019-03-09T14:29:02.480Z,3.67
2019-03-09T14:31:31.426Z,4.20
2019-03-09T14:34:00.545Z,4.30
2019-03-09T14:36:33.979Z,4.87
2019-03-09T14:39:04.106Z,5.10
2019-03-09T14:41:33.163Z,5.10
2019-03-09T14:44:02.262Z,4.93
2019-03-09T14:46:33.298Z,4.80
2019-03-09T14:49:05.437Z,5.50
2019-03-09T14:51:34.448Z,5.27
2019-03-09T14:54:03.529Z,4.53
2019-03-09T14:56:41.385Z,4.60
2019-03-09T14:59:10.358Z,4.87
2019-03-09T15:01:43.756Z,6.90
2019-03-09T15:04:14.582Z,4.67
2019-03-09T15:06:47.091Z,5.33
2019-03-09T15:09:17.438Z,4.40
2019-03-09T15:11:46.632Z,3.87
2019-03-09T15:14:18.794Z,3.80
2019-03-09T15:16:48.816Z,4.40
2019-03-09T15:19:18.918Z,4.70
2019-03-09T15:21:48.782Z,4.63
2019-03-09T15:24:26.796Z,4.13
2019-03-09T15:26:59.430Z,3.93
2019-03-09T15:29:28.532Z,4.10
2019-03-09T15:31:57.481Z,3.80
2019-03-09T15:34:27.740Z,3.57
2019-03-09T15:36:59.258Z,3.80
2019-03-09T15:39:30.109Z,3.50
2019-03-09T15:42:02.070Z,3.57
2019-03-09T15:44:37.002Z,3.50
2019-03-09T15:47:15.411Z,3.63
2019-03-09T15:49:49.329Z,3.83
2019-03-09T15:52:24.299Z,3.77
2019-03-09T15:54:59.152Z,3.20
2019-03-09T15:57:28.119Z,3.50
2019-03-09T15:59:58.572Z,3.27
2019-03-09T16:02:27.572Z,3.20
2019-03-09T16:05:06.408Z,2.63
2019-03-09T16:07:35.485Z,2.70
2019-03-09T16:10:12.814Z,3.00
2019-03-09T16:12:41.874Z,2.27
2019-03-09T16:15:11.769Z,2.20
2019-03-09T16:17:40.752Z,1.70
2019-03-09T16:20:12.378Z,1.83
2019-03-09T16:22:41.415Z,1.87
2019-03-09T16:25:10.387Z,2.50
2019-03-09T16:27:40.650Z,2.20
2019-03-09T16:30:13.743Z,2.60
2019-03-09T16:32:44.807Z,2.60
2019-03-09T16:35:16.237Z,2.10
2019-03-09T16:37:45.272Z,2.00
2019-03-09T16:40:19.853Z,2.30
2019-03-09T16:42:51.366Z,2.10
2019-03-09T16:45:20.376Z,2.40
2019-03-09T16:47:53.284Z,1.70
2019-03-09T16:50:31.235Z,1.97
2019-03-09T16:53:10.029Z,2.17
2019-03-09T16:55:44.477Z,3.00
2019-03-09T16:58:18.987Z,2.10
2019-03-09T17:00:51.358Z,2.10
2019-03-09T17:03:24.938Z,2.70
2019-03-09T17:06:01.638Z,2.33
2019-03-09T17:08:31.343Z,3.57
2019-03-09T17:11:08.514Z,6.20
2019-03-09T17:13:39.032Z,7.97
2019-03-09T17:16:17.577Z,5.30
2019-03-09T17:18:52.432Z,3.93
2019-03-09T17:21:24.016Z,3.40
2019-03-09T17:24:02.216Z,3.40
2019-03-09T17:26:36.000Z,3.27
2019-03-09T17:29:10.553Z,3.13
2019-03-09T17:31:39.684Z,10.50
2019-03-09T17:34:12.976Z,3.43
2019-03-09T17:36:41.947Z,2.87
2019-03-09T17:39:17.579Z,3.40
2019-03-09T17:41:51.226Z,3.00
2019-03-09T17:44:26.090Z,3.20
2019-03-09T17:47:01.993Z,3.47
2019-03-09T17:49:33.395Z,3.40
2019-03-09T17:52:04.638Z,3.43
2019-03-09T17:54:44.315Z,3.60
2019-03-09T17:57:13.245Z,4.13
2019-03-09T17:59:42.237Z,4.53
2019-03-09T18:02:12.473Z,5.03
2019-03-09T18:04:41.399Z,3.70
2019-03-09T18:07:22.191Z,3.30
2019-03-09T18:09:51.854Z,3.40
2019-03-09T18:12:29.255Z,3.73
2019-03-09T18:15:11.246Z,2.90
2019-03-09T18:17:43.024Z,3.07
2019-03-09T18:20:19.517Z,3.70
2019-03-09T18:22:48.592Z,3.63
2019-03-09T18:25:25.213Z,3.70
2019-03-09T18:28:05.984Z,3.63
2019-03-09T18:30:41.083Z,3.90
2019-03-09T18:33:12.875Z,4.03
2019-03-09T18:35:46.508Z,3.83
2019-03-09T18:38:21.796Z,4.53
2019-03-09T18:40:50.748Z,5.37
2019-03-09T18:43:22.762Z,5.70
2019-03-09T18:45:51.988Z,5.47
2019-03-09T18:48:26.239Z,5.47
2019-03-09T18:50:55.292Z,7.50
2019-03-09T18:53:28.691Z,8.33
2019-03-09T18:55:59.966Z,7.13
2019-03-09T18:58:30.831Z,5.80
2019-03-09T19:01:03.642Z,5.93
2019-03-09T19:03:40.690Z,5.83
2019-03-09T19:06:11.658Z,5.73
2019-03-09T19:08:43.922Z,7.40
2019-03-09T19:11:13.429Z,7.87
2019-03-09T19:13:45.444Z,6.40
2019-03-09T19:16:18.160Z,6.00
2019-03-09T19:18:53.079Z,5.33
2019-03-09T19:21:22.060Z,5.17
2019-03-09T19:23:54.686Z,4.50
2019-03-09T19:26:23.621Z,4.63
2019-03-09T19:28:56.090Z,4.63
2019-03-09T19:31:25.458Z,4.67
2019-03-09T19:34:03.939Z,5.07
2019-03-09T19:36:36.967Z,5.50
2019-03-09T19:39:06.831Z,5.47
2019-03-09T19:41:36.032Z,6.50
2019-03-09T19:44:07.973Z,5.87
2019-03-09T19:46:41.167Z,5.13
2019-03-09T19:49:10.243Z,5.70
2019-03-09T19:51:39.466Z,5.30
2019-03-09T19:54:11.861Z,5.70
2019-03-09T19:56:40.983Z,5.50
2019-03-09T19:59:10.195Z,6.30
2019-03-09T20:01:39.295Z,5.53
2019-03-09T20:04:08.497Z,5.67
2019-03-09T20:06:42.108Z,5.80
2019-03-09T20:09:14.129Z,6.30
2019-03-09T20:11:43.344Z,5.97
2019-03-09T20:14:12.551Z,5.57
2019-03-09T20:16:41.688Z,6.53
2019-03-09T20:19:12.055Z,5.80
2019-03-09T20:21:41.552Z,8.37
2019-03-09T20:24:10.652Z,4.10
2019-03-09T20:26:41.612Z,3.37
2019-03-09T20:29:10.840Z,2.87
2019-03-09T20:31:40.001Z,3.10
2019-03-09T20:34:09.851Z,2.80
2019-03-09T20:36:41.213Z,2.87
2019-03-09T20:39:10.285Z,2.40
2019-03-09T20:41:39.411Z,2.50
2019-03-09T20:44:10.679Z,2.40
2019-03-09T20:46:42.125Z,1.70
2019-03-09T20:49:10.096Z,2.40
2019-03-09T20:51:41.269Z,1.67
2019-03-09T20:54:10.354Z,2.00
2019-03-09T20:56:39.562Z,2.10
2019-03-09T20:59:09.615Z,1.70
2019-03-09T21:01:38.900Z,2.00
2019-03-09T21:04:08.161Z,2.07
2019-03-09T21:06:37.355Z,2.07
2019-03-09T21:09:07.493Z,1.70
2019-03-09T21:11:41.653Z,1.90
2019-03-09T21:14:11.024Z,1.90
2019-03-09T21:16:40.410Z,2.73
2019-03-09T21:19:11.825Z,1.90
2019-03-09T21:21:40.902Z,2.40
2019-03-09T21:24:09.982Z,3.10
2019-03-09T21:26:39.242Z,2.33
2019-03-09T21:29:08.431Z,2.20
2019-03-09T21:31:37.915Z,3.20
2019-03-09T21:34:06.861Z,2.27
2019-03-09T21:36:36.271Z,2.53
2019-03-09T21:39:06.394Z,2.37
2019-03-09T21:41:35.629Z,3.27
2019-03-09T21:44:04.694Z,2.47
2019-03-09T21:46:36.201Z,2.93
2019-03-09T21:49:09.774Z,2.17
2019-03-09T21:54:14.526Z,2.00
2019-03-09T21:56:43.667Z,2.20
2019-03-09T21:59:12.854Z,1.90
2019-03-09T22:01:41.881Z,2.77
2019-03-09T22:04:11.078Z,2.87
2019-03-09T22:06:45.061Z,2.20
2019-03-09T22:09:14.817Z,2.37
2019-03-09T22:11:44.146Z,2.33
2019-03-09T22:14:13.365Z,2.23
2019-03-09T22:16:43.747Z,1.77
2019-03-09T22:19:13.787Z,2.00
2019-03-09T22:21:42.758Z,2.00
2019-03-09T22:24:11.800Z,2.27
2019-03-09T22:26:40.828Z,1.77
2019-03-09T22:29:10.782Z,2.03
2019-03-09T22:31:45.382Z,1.90
2019-03-09T22:34:14.695Z,2.03
2019-03-09T22:36:47.992Z,2.10
2019-03-09T22:39:23.562Z,2.10
2019-03-09T22:41:53.063Z,1.63
2019-03-09T22:44:26.996Z,1.70
2019-03-09T22:46:56.573Z,1.67
2019-03-09T22:49:26.036Z,1.93
2019-03-09T22:51:57.058Z,1.70
2019-03-09T22:54:26.437Z,2.63
2019-03-09T22:56:55.523Z,1.70
2019-03-09T22:59:28.791Z,1.97
2019-03-09T23:01:57.857Z,2.13
2019-03-09T23:04:28.581Z,2.10
2019-03-09T23:06:58.799Z,1.67
2019-03-09T23:09:28.734Z,1.80
2019-03-09T23:11:59.239Z,2.00
2019-03-09T23:14:28.329Z,2.27
2019-03-09T23:16:57.313Z,1.73
2019-03-09T23:22:09.671Z,1.90
2019-03-09T23:24:41.648Z,2.13
2019-03-09T23:27:12.485Z,2.57
2019-03-09T23:29:42.189Z,2.37
2019-03-09T23:32:11.275Z,2.10
2019-03-09T23:34:40.319Z,1.97
2019-03-09T23:37:18.517Z,2.27
2019-03-09T23:39:47.743Z,1.93
2019-03-09T23:42:16.929Z,2.20
2019-03-09T23:44:49.079Z,1.90
2019-03-09T23:47:21.917Z,2.57
2019-03-09T23:49:51.131Z,1.83
2019-03-09T23:52:21.435Z,2.20
2019-03-09T23:54:52.389Z,2.17
2019-03-09T23:57:21.521Z,1.97
2019-03-09T23:59:50.737Z,1.90
